sensor_id;sensor_type;location;lat;lon;timestamp;pressure;altitude;pressure_sealevel;temperature;humidity
71149;BME280;59072;42.144;25.200;2023-04-30T00:00:02;99838.03;;;14.63;59.80
71149;BME280;59072;42.144;25.200;2023-04-30T00:02:32;99840.66;;;14.58;59.99
71149;BME280;59072;42.144;25.200;2023-04-30T00:04:57;99831.69;;;14.30;61.17
71149;BME280;59072;42.144;25.200;2023-04-30T00:07:23;99828.25;;;14.79;59.45
71149;BME280;59072;42.144;25.200;2023-04-30T00:09:48;99818.50;;;14.68;60.89
71149;BME280;59072;42.144;25.200;2023-04-30T00:12:15;99831.44;;;14.54;60.17
71149;BME280;59072;42.144;25.200;2023-04-30T00:14:40;99833.75;;;14.45;60.55
71149;BME280;59072;42.144;25.200;2023-04-30T00:17:06;99829.00;;;14.30;61.72
71149;BME280;59072;42.144;25.200;2023-04-30T00:19:31;99822.34;;;14.33;61.09
71149;BME280;59072;42.144;25.200;2023-04-30T00:21:57;99824.88;;;14.00;62.07
71149;BME280;59072;42.144;25.200;2023-04-30T00:24:22;99822.63;;;13.92;63.47
71149;BME280;59072;42.144;25.200;2023-04-30T00:26:47;99816.06;;;14.05;63.30
71149;BME280;59072;42.144;25.200;2023-04-30T00:29:13;99825.84;;;13.94;63.67
71149;BME280;59072;42.144;25.200;2023-04-30T00:31:38;99830.81;;;14.02;64.34
71149;BME280;59072;42.144;25.200;2023-04-30T00:34:04;99826.47;;;14.01;63.46
71149;BME280;59072;42.144;25.200;2023-04-30T00:36:29;99825.34;;;13.97;63.51
71149;BME280;59072;42.144;25.200;2023-04-30T00:38:56;99827.00;;;13.98;63.26
71149;BME280;59072;42.144;25.200;2023-04-30T00:41:21;99823.50;;;13.81;64.50
71149;BME280;59072;42.144;25.200;2023-04-30T00:43:47;99821.34;;;13.78;65.59
71149;BME280;59072;42.144;25.200;2023-04-30T00:46:12;99816.16;;;13.71;65.17
71149;BME280;59072;42.144;25.200;2023-04-30T00:48:38;99817.72;;;13.89;62.92
71149;BME280;59072;42.144;25.200;2023-04-30T00:51:04;99819.28;;;13.85;62.96
71149;BME280;59072;42.144;25.200;2023-04-30T00:53:30;99820.25;;;13.96;62.02
71149;BME280;59072;42.144;25.200;2023-04-30T00:55:56;99809.97;;;13.71;61.42
71149;BME280;59072;42.144;25.200;2023-04-30T00:58:22;99823.09;;;13.89;59.29
71149;BME280;59072;42.144;25.200;2023-04-30T01:00:47;99822.63;;;13.92;57.20
71149;BME280;59072;42.144;25.200;2023-04-30T01:03:13;99823.50;;;13.81;58.02
71149;BME280;59072;42.144;25.200;2023-04-30T01:05:39;99824.75;;;13.73;57.76
71149;BME280;59072;42.144;25.200;2023-04-30T01:08:04;99817.94;;;13.65;58.62
71149;BME280;59072;42.144;25.200;2023-04-30T01:10:36;99804.81;;;13.47;59.72
71149;BME280;59072;42.144;25.200;2023-04-30T01:13:11;99814.44;;;13.48;59.72
71149;BME280;59072;42.144;25.200;2023-04-30T01:18:16;99806.06;;;13.27;61.16
71149;BME280;59072;42.144;25.200;2023-04-30T01:20:48;99812.59;;;13.49;60.72
71149;BME280;59072;42.144;25.200;2023-04-30T01:28:37;99803.88;;;13.58;60.86
71149;BME280;59072;42.144;25.200;2023-04-30T01:31:10;99778.25;;;13.45;61.65
71149;BME280;59072;42.144;25.200;2023-04-30T01:33:36;99802.88;;;13.42;63.12
71149;BME280;59072;42.144;25.200;2023-04-30T01:38:57;99800.75;;;13.44;63.79
71149;BME280;59072;42.144;25.200;2023-04-30T01:52:46;99801.72;;;13.55;64.62
71149;BME280;59072;42.144;25.200;2023-04-30T01:55:20;99804.00;;;13.46;65.12
71149;BME280;59072;42.144;25.200;2023-04-30T01:57:59;99784.97;;;13.14;65.58
71149;BME280;59072;42.144;25.200;2023-04-30T02:00:26;99797.94;;;13.22;66.87
71149;BME280;59072;42.144;25.200;2023-04-30T02:02:52;99799.88;;;13.10;67.40
71149;BME280;59072;42.144;25.200;2023-04-30T02:05:17;99796.88;;;12.90;70.77
71149;BME280;59072;42.144;25.200;2023-04-30T02:07:44;99784.44;;;12.83;70.87
71149;BME280;59072;42.144;25.200;2023-04-30T02:10:12;99808.59;;;12.89;71.25
71149;BME280;59072;42.144;25.200;2023-04-30T02:12:38;99806.25;;;12.92;71.47
71149;BME280;59072;42.144;25.200;2023-04-30T02:15:04;99804.44;;;12.81;72.55
71149;BME280;59072;42.144;25.200;2023-04-30T02:17:30;99802.03;;;12.79;73.80
71149;BME280;59072;42.144;25.200;2023-04-30T02:19:56;99804.78;;;12.84;72.89
71149;BME280;59072;42.144;25.200;2023-04-30T02:22:22;99794.78;;;12.63;73.57
71149;BME280;59072;42.144;25.200;2023-04-30T02:24:47;99800.59;;;12.60;74.22
71149;BME280;59072;42.144;25.200;2023-04-30T02:27:13;99796.38;;;12.64;73.49
71149;BME280;59072;42.144;25.200;2023-04-30T02:29:39;99801.00;;;12.69;74.21
71149;BME280;59072;42.144;25.200;2023-04-30T02:32:04;99795.09;;;12.66;74.94
71149;BME280;59072;42.144;25.200;2023-04-30T02:34:30;99793.91;;;12.74;74.62
71149;BME280;59072;42.144;25.200;2023-04-30T02:36:56;99790.56;;;12.67;74.90
71149;BME280;59072;42.144;25.200;2023-04-30T02:39:21;99792.94;;;12.80;74.17
71149;BME280;59072;42.144;25.200;2023-04-30T02:41:46;99793.41;;;13.06;71.80
71149;BME280;59072;42.144;25.200;2023-04-30T02:44:12;99802.44;;;13.34;71.38
71149;BME280;59072;42.144;25.200;2023-04-30T02:46:37;99797.94;;;13.22;70.54
71149;BME280;59072;42.144;25.200;2023-04-30T02:49:02;99798.06;;;12.99;71.23
71149;BME280;59072;42.144;25.200;2023-04-30T02:51:28;99796.75;;;12.84;72.26
71149;BME280;59072;42.144;25.200;2023-04-30T02:53:53;99793.47;;;12.65;73.37
71149;BME280;59072;42.144;25.200;2023-04-30T02:56:19;99791.53;;;12.61;73.11
71149;BME280;59072;42.144;25.200;2023-04-30T02:58:45;99772.03;;;12.49;73.41
71149;BME280;59072;42.144;25.200;2023-04-30T03:01:11;99792.75;;;12.70;72.33
71149;BME280;59072;42.144;25.200;2023-04-30T03:03:36;99805.94;;;12.89;71.16
71149;BME280;59072;42.144;25.200;2023-04-30T03:06:01;99779.00;;;12.95;70.54
71149;BME280;59072;42.144;25.200;2023-04-30T03:08:27;99795.44;;;12.87;71.00
71149;BME280;59072;42.144;25.200;2023-04-30T03:10:52;99797.81;;;12.83;71.46
71149;BME280;59072;42.144;25.200;2023-04-30T03:13:18;99802.22;;;12.61;72.77
71149;BME280;59072;42.144;25.200;2023-04-30T03:15:43;99804.50;;;12.69;73.25
71149;BME280;59072;42.144;25.200;2023-04-30T03:18:09;99810.06;;;12.79;72.13
71149;BME280;59072;42.144;25.200;2023-04-30T03:20:35;99798.06;;;12.82;72.24
71149;BME280;59072;42.144;25.200;2023-04-30T03:23:01;99813.03;;;13.29;70.31
71149;BME280;59072;42.144;25.200;2023-04-30T03:25:26;99804.72;;;13.42;68.94
71149;BME280;59072;42.144;25.200;2023-04-30T03:27:51;99803.25;;;12.89;71.59
71149;BME280;59072;42.144;25.200;2023-04-30T03:30:17;99811.84;;;12.62;74.24
71149;BME280;59072;42.144;25.200;2023-04-30T03:32:42;99815.88;;;12.48;73.95
71149;BME280;59072;42.144;25.200;2023-04-30T03:35:08;99816.06;;;12.58;74.25
71149;BME280;59072;42.144;25.200;2023-04-30T03:37:34;99811.81;;;12.74;73.83
71149;BME280;59072;42.144;25.200;2023-04-30T03:39:59;99815.81;;;12.59;73.03
71149;BME280;59072;42.144;25.200;2023-04-30T03:42:25;99816.81;;;12.70;73.28
71149;BME280;59072;42.144;25.200;2023-04-30T03:44:50;99826.91;;;12.80;72.88
71149;BME280;59072;42.144;25.200;2023-04-30T03:47:16;99818.84;;;12.63;74.01
71149;BME280;59072;42.144;25.200;2023-04-30T03:49:41;99824.78;;;12.65;72.93
71149;BME280;59072;42.144;25.200;2023-04-30T03:52:07;99818.94;;;12.68;72.33
71149;BME280;59072;42.144;25.200;2023-04-30T03:54:32;99838.91;;;12.49;73.73
71149;BME280;59072;42.144;25.200;2023-04-30T03:57:00;99815.16;;;12.12;75.29
71149;BME280;59072;42.144;25.200;2023-04-30T03:59:30;99816.66;;;12.08;75.81
71149;BME280;59072;42.144;25.200;2023-04-30T04:01:56;99841.19;;;12.57;73.35
71149;BME280;59072;42.144;25.200;2023-04-30T04:04:21;99841.56;;;12.49;75.32
71149;BME280;59072;42.144;25.200;2023-04-30T04:06:47;99840.06;;;12.41;75.04
71149;BME280;59072;42.144;25.200;2023-04-30T04:09:12;99850.84;;;12.86;72.22
71149;BME280;59072;42.144;25.200;2023-04-30T04:11:38;99853.94;;;12.66;72.55
71149;BME280;59072;42.144;25.200;2023-04-30T04:14:03;99854.34;;;12.87;71.79
71149;BME280;59072;42.144;25.200;2023-04-30T04:16:29;99851.22;;;12.78;70.85
71149;BME280;59072;42.144;25.200;2023-04-30T04:18:54;99858.69;;;12.76;71.18
71149;BME280;59072;42.144;25.200;2023-04-30T04:21:20;99857.81;;;12.59;71.77
71149;BME280;59072;42.144;25.200;2023-04-30T04:23:45;99845.03;;;12.90;71.47
71149;BME280;59072;42.144;25.200;2023-04-30T04:26:10;99865.09;;;13.33;69.38
71149;BME280;59072;42.144;25.200;2023-04-30T04:28:36;99851.66;;;13.16;69.65
71149;BME280;59072;42.144;25.200;2023-04-30T04:31:03;99857.47;;;12.96;70.15
71149;BME280;59072;42.144;25.200;2023-04-30T04:33:29;99860.69;;;12.69;70.81
71149;BME280;59072;42.144;25.200;2023-04-30T04:35:55;99861.06;;;13.18;69.38
71149;BME280;59072;42.144;25.200;2023-04-30T04:38:21;99862.47;;;12.92;72.03
71149;BME280;59072;42.144;25.200;2023-04-30T04:40:53;99862.03;;;12.83;72.13
71149;BME280;59072;42.144;25.200;2023-04-30T04:43:19;99859.22;;;12.90;72.93
71149;BME280;59072;42.144;25.200;2023-04-30T04:45:45;99858.53;;;12.83;73.76
71149;BME280;59072;42.144;25.200;2023-04-30T04:48:11;99852.34;;;12.65;74.48
71149;BME280;59072;42.144;25.200;2023-04-30T04:50:36;99872.69;;;12.95;72.62
71149;BME280;59072;42.144;25.200;2023-04-30T04:53:02;99854.22;;;12.94;70.85
71149;BME280;59072;42.144;25.200;2023-04-30T04:55:27;99867.91;;;12.97;70.99
71149;BME280;59072;42.144;25.200;2023-04-30T04:57:53;99871.22;;;12.88;71.87
71149;BME280;59072;42.144;25.200;2023-04-30T05:00:18;99874.13;;;12.86;71.48
71149;BME280;59072;42.144;25.200;2023-04-30T05:02:46;99873.78;;;12.82;72.23
71149;BME280;59072;42.144;25.200;2023-04-30T05:05:11;99873.31;;;12.85;72.65
71149;BME280;59072;42.144;25.200;2023-04-30T05:07:37;99875.31;;;12.78;72.93
71149;BME280;59072;42.144;25.200;2023-04-30T05:10:02;99864.56;;;12.50;73.68
71149;BME280;59072;42.144;25.200;2023-04-30T05:12:28;99879.09;;;12.65;72.48
71149;BME280;59072;42.144;25.200;2023-04-30T05:14:53;99881.16;;;12.75;72.84
71149;BME280;59072;42.144;25.200;2023-04-30T05:17:18;99887.84;;;12.49;72.43
71149;BME280;59072;42.144;25.200;2023-04-30T05:19:44;99888.41;;;12.63;72.20
71149;BME280;59072;42.144;25.200;2023-04-30T05:22:11;99887.28;;;12.88;70.46
71149;BME280;59072;42.144;25.200;2023-04-30T05:24:37;99888.53;;;12.85;69.94
71149;BME280;59072;42.144;25.200;2023-04-30T05:27:02;99884.69;;;12.93;70.25
71149;BME280;59072;42.144;25.200;2023-04-30T05:29:29;99887.69;;;13.25;67.96
71149;BME280;59072;42.144;25.200;2023-04-30T05:31:55;99889.06;;;13.56;67.03
71149;BME280;59072;42.144;25.200;2023-04-30T05:34:21;99895.72;;;13.71;66.21
71149;BME280;59072;42.144;25.200;2023-04-30T05:36:47;99890.53;;;13.64;65.74
71149;BME280;59072;42.144;25.200;2023-04-30T05:39:12;99891.91;;;13.66;64.20
71149;BME280;59072;42.144;25.200;2023-04-30T05:41:38;99892.00;;;13.72;64.58
71149;BME280;59072;42.144;25.200;2023-04-30T05:44:04;99897.34;;;13.55;64.88
71149;BME280;59072;42.144;25.200;2023-04-30T05:46:29;99891.41;;;13.86;65.67
71149;BME280;59072;42.144;25.200;2023-04-30T05:48:55;99892.94;;;13.99;66.78
71149;BME280;59072;42.144;25.200;2023-04-30T05:51:20;99882.41;;;13.93;67.05
71149;BME280;59072;42.144;25.200;2023-04-30T05:53:46;99896.19;;;14.18;63.83
71149;BME280;59072;42.144;25.200;2023-04-30T05:56:11;99898.88;;;14.40;65.06
71149;BME280;59072;42.144;25.200;2023-04-30T05:58:38;99881.22;;;14.22;61.93
71149;BME280;59072;42.144;25.200;2023-04-30T06:01:03;99897.63;;;14.48;61.91
71149;BME280;59072;42.144;25.200;2023-04-30T06:03:30;99901.56;;;14.40;62.02
71149;BME280;59072;42.144;25.200;2023-04-30T06:05:55;99903.06;;;14.70;61.20
71149;BME280;59072;42.144;25.200;2023-04-30T06:08:21;99909.19;;;14.88;60.79
71149;BME280;59072;42.144;25.200;2023-04-30T06:10:47;99915.41;;;14.93;59.36
71149;BME280;59072;42.144;25.200;2023-04-30T06:13:12;99915.56;;;14.81;58.79
71149;BME280;59072;42.144;25.200;2023-04-30T06:15:39;99906.16;;;15.06;59.37
71149;BME280;59072;42.144;25.200;2023-04-30T06:18:05;99908.56;;;15.07;59.55
71149;BME280;59072;42.144;25.200;2023-04-30T06:20:31;99910.09;;;15.25;58.51
71149;BME280;59072;42.144;25.200;2023-04-30T06:22:56;99909.78;;;15.22;57.18
71149;BME280;59072;42.144;25.200;2023-04-30T06:25:22;99909.66;;;15.34;58.60
71149;BME280;59072;42.144;25.200;2023-04-30T06:27:47;99896.53;;;15.10;57.06
71149;BME280;59072;42.144;25.200;2023-04-30T06:30:13;99891.72;;;15.12;56.21
71149;BME280;59072;42.144;25.200;2023-04-30T06:32:39;99901.50;;;15.23;57.68
71149;BME280;59072;42.144;25.200;2023-04-30T06:35:05;99904.44;;;15.49;57.14
71149;BME280;59072;42.144;25.200;2023-04-30T06:37:31;99905.09;;;15.94;55.50
71149;BME280;59072;42.144;25.200;2023-04-30T06:40:02;99889.53;;;16.01;53.78
71149;BME280;59072;42.144;25.200;2023-04-30T06:42:28;99893.72;;;15.86;54.57
71149;BME280;59072;42.144;25.200;2023-04-30T06:44:59;99893.50;;;15.93;53.44
71149;BME280;59072;42.144;25.200;2023-04-30T06:47:25;99904.25;;;16.31;53.57
71149;BME280;59072;42.144;25.200;2023-04-30T06:49:50;99893.63;;;16.14;54.60
71149;BME280;59072;42.144;25.200;2023-04-30T06:52:16;99885.59;;;16.19;54.01
71149;BME280;59072;42.144;25.200;2023-04-30T06:54:41;99898.19;;;16.61;51.59
71149;BME280;59072;42.144;25.200;2023-04-30T06:57:07;99883.16;;;16.70;51.34
71149;BME280;59072;42.144;25.200;2023-04-30T06:59:33;99899.94;;;16.98;48.97
71149;BME280;59072;42.144;25.200;2023-04-30T07:01:58;99905.34;;;16.98;47.07
71149;BME280;59072;42.144;25.200;2023-04-30T07:04:24;99901.59;;;17.04;47.15
71149;BME280;59072;42.144;25.200;2023-04-30T07:06:50;99902.72;;;17.08;47.78
71149;BME280;59072;42.144;25.200;2023-04-30T07:09:16;99889.81;;;17.46;46.33
71149;BME280;59072;42.144;25.200;2023-04-30T07:11:41;99890.38;;;17.43;48.17
71149;BME280;59072;42.144;25.200;2023-04-30T07:14:07;99891.97;;;17.39;46.77
71149;BME280;59072;42.144;25.200;2023-04-30T07:16:33;99893.06;;;17.43;47.28
71149;BME280;59072;42.144;25.200;2023-04-30T07:19:01;99889.81;;;17.56;47.40
71149;BME280;59072;42.144;25.200;2023-04-30T07:21:29;99890.34;;;17.68;45.18
71149;BME280;59072;42.144;25.200;2023-04-30T07:23:56;99889.28;;;17.85;46.28
71149;BME280;59072;42.144;25.200;2023-04-30T07:26:22;99895.22;;;17.92;43.43
71149;BME280;59072;42.144;25.200;2023-04-30T07:28:49;99886.59;;;17.85;44.94
71149;BME280;59072;42.144;25.200;2023-04-30T07:31:17;99890.81;;;18.32;45.84
71149;BME280;59072;42.144;25.200;2023-04-30T07:33:43;99894.84;;;18.35;44.26
71149;BME280;59072;42.144;25.200;2023-04-30T07:36:09;99896.78;;;18.24;44.38
71149;BME280;59072;42.144;25.200;2023-04-30T07:38:34;99899.47;;;18.29;43.95
71149;BME280;59072;42.144;25.200;2023-04-30T07:41:01;99897.03;;;18.22;43.31
71149;BME280;59072;42.144;25.200;2023-04-30T07:43:27;99888.09;;;18.47;44.34
71149;BME280;59072;42.144;25.200;2023-04-30T07:45:53;99907.91;;;18.93;41.33
71149;BME280;59072;42.144;25.200;2023-04-30T07:48:19;99898.63;;;19.09;42.86
71149;BME280;59072;42.144;25.200;2023-04-30T07:50:48;99908.22;;;19.31;41.40
71149;BME280;59072;42.144;25.200;2023-04-30T07:53:14;99890.97;;;18.72;41.83
71149;BME280;59072;42.144;25.200;2023-04-30T07:55:39;99908.28;;;19.20;40.66
71149;BME280;59072;42.144;25.200;2023-04-30T07:58:05;99881.81;;;19.17;39.61
71149;BME280;59072;42.144;25.200;2023-04-30T08:00:30;99895.97;;;18.99;40.26
71149;BME280;59072;42.144;25.200;2023-04-30T08:02:59;99885.06;;;19.14;39.21
71149;BME280;59072;42.144;25.200;2023-04-30T08:05:25;99900.25;;;19.50;40.29
71149;BME280;59072;42.144;25.200;2023-04-30T08:07:51;99891.34;;;20.13;39.83
71149;BME280;59072;42.144;25.200;2023-04-30T08:10:17;99899.75;;;19.82;38.27
71149;BME280;59072;42.144;25.200;2023-04-30T08:12:42;99891.28;;;19.89;42.70
71149;BME280;59072;42.144;25.200;2023-04-30T08:15:08;99895.59;;;20.19;39.55
71149;BME280;59072;42.144;25.200;2023-04-30T08:17:34;99886.03;;;20.02;40.46
71149;BME280;59072;42.144;25.200;2023-04-30T08:20:00;99885.06;;;19.54;40.21
71149;BME280;59072;42.144;25.200;2023-04-30T08:22:25;99875.41;;;19.82;38.98
71149;BME280;59072;42.144;25.200;2023-04-30T08:24:51;99887.03;;;19.82;41.15
71149;BME280;59072;42.144;25.200;2023-04-30T08:27:21;99880.75;;;19.87;41.27
71149;BME280;59072;42.144;25.200;2023-04-30T08:29:47;99882.19;;;20.09;38.74
71149;BME280;59072;42.144;25.200;2023-04-30T08:32:12;99880.28;;;20.33;40.12
71149;BME280;59072;42.144;25.200;2023-04-30T08:34:37;99878.41;;;20.53;39.56
71149;BME280;59072;42.144;25.200;2023-04-30T08:37:05;99877.03;;;20.55;39.11
71149;BME280;59072;42.144;25.200;2023-04-30T08:39:31;99876.00;;;20.75;38.98
71149;BME280;59072;42.144;25.200;2023-04-30T08:42:00;99870.38;;;20.91;40.29
71149;BME280;59072;42.144;25.200;2023-04-30T08:44:26;99867.22;;;21.21;38.67
71149;BME280;59072;42.144;25.200;2023-04-30T08:46:55;99869.09;;;21.40;38.73
71149;BME280;59072;42.144;25.200;2023-04-30T08:49:23;99881.53;;;21.46;37.01
71149;BME280;59072;42.144;25.200;2023-04-30T08:51:50;99863.31;;;21.46;36.71
71149;BME280;59072;42.144;25.200;2023-04-30T08:54:17;99871.34;;;21.71;35.82
71149;BME280;59072;42.144;25.200;2023-04-30T08:56:48;99876.91;;;21.93;34.71
71149;BME280;59072;42.144;25.200;2023-04-30T08:59:14;99873.03;;;21.66;35.30
71149;BME280;59072;42.144;25.200;2023-04-30T09:01:40;99859.16;;;22.42;36.42
71149;BME280;59072;42.144;25.200;2023-04-30T09:04:07;99873.84;;;22.69;34.75
71149;BME280;59072;42.144;25.200;2023-04-30T09:06:33;99870.47;;;21.89;35.71
71149;BME280;59072;42.144;25.200;2023-04-30T09:12:17;99855.38;;;21.83;35.34
71149;BME280;59072;42.144;25.200;2023-04-30T09:18:26;99849.09;;;22.57;36.65
71149;BME280;59072;42.144;25.200;2023-04-30T09:28:09;99847.72;;;23.63;34.22
71149;BME280;59072;42.144;25.200;2023-04-30T09:30:35;99844.16;;;23.54;32.95
71149;BME280;59072;42.144;25.200;2023-04-30T09:33:01;99848.66;;;23.81;32.50
71149;BME280;59072;42.144;25.200;2023-04-30T09:35:31;99823.84;;;23.60;35.34
71149;BME280;59072;42.144;25.200;2023-04-30T09:38:02;99842.78;;;23.65;33.71
71149;BME280;59072;42.144;25.200;2023-04-30T09:40:41;99826.78;;;23.41;32.29
71149;BME280;59072;42.144;25.200;2023-04-30T09:43:07;99825.97;;;23.41;32.87
71149;BME280;59072;42.144;25.200;2023-04-30T09:45:59;99839.34;;;23.29;34.22
71149;BME280;59072;42.144;25.200;2023-04-30T09:48:25;99824.44;;;23.26;34.05
71149;BME280;59072;42.144;25.200;2023-04-30T09:50:54;99831.38;;;23.86;32.05
71149;BME280;59072;42.144;25.200;2023-04-30T09:53:19;99810.38;;;23.55;33.43
71149;BME280;59072;42.144;25.200;2023-04-30T09:55:49;99804.31;;;23.58;32.59
71149;BME280;59072;42.144;25.200;2023-04-30T09:58:17;99815.72;;;23.69;32.18
71149;BME280;59072;42.144;25.200;2023-04-30T10:00:44;99801.59;;;23.58;32.44
71149;BME280;59072;42.144;25.200;2023-04-30T10:03:12;99815.91;;;23.73;32.00
71149;BME280;59072;42.144;25.200;2023-04-30T10:08:09;99806.47;;;24.01;31.17
71149;BME280;59072;42.144;25.200;2023-04-30T10:10:39;99805.47;;;23.66;31.77
71149;BME280;59072;42.144;25.200;2023-04-30T10:13:09;99795.09;;;23.45;32.11
71149;BME280;59072;42.144;25.200;2023-04-30T10:15:42;99799.78;;;23.22;32.54
71149;BME280;59072;42.144;25.200;2023-04-30T10:18:20;99784.84;;;24.05;32.16
71149;BME280;59072;42.144;25.200;2023-04-30T10:20:49;99786.59;;;24.67;33.69
71149;BME280;59072;42.144;25.200;2023-04-30T10:23:17;99798.28;;;25.29;31.97
71149;BME280;59072;42.144;25.200;2023-04-30T10:25:46;99805.66;;;25.02;30.74
71149;BME280;59072;42.144;25.200;2023-04-30T10:28:12;99806.94;;;25.31;29.73
71149;BME280;59072;42.144;25.200;2023-04-30T10:30:40;99786.06;;;25.91;29.68
71149;BME280;59072;42.144;25.200;2023-04-30T10:33:14;99771.47;;;25.78;28.69
71149;BME280;59072;42.144;25.200;2023-04-30T10:35:48;99793.63;;;25.85;29.41
71149;BME280;59072;42.144;25.200;2023-04-30T10:38:23;99781.13;;;26.14;29.11
71149;BME280;59072;42.144;25.200;2023-04-30T10:40:54;99788.25;;;26.36;28.67
71149;BME280;59072;42.144;25.200;2023-04-30T10:43:23;99781.09;;;25.84;29.91
71149;BME280;59072;42.144;25.200;2023-04-30T10:45:48;99775.81;;;24.88;30.67
71149;BME280;59072;42.144;25.200;2023-04-30T10:48:15;99780.13;;;25.33;30.58
71149;BME280;59072;42.144;25.200;2023-04-30T10:50:54;99775.72;;;25.66;30.15
71149;BME280;59072;42.144;25.200;2023-04-30T10:53:20;99780.28;;;25.19;30.92
71149;BME280;59072;42.144;25.200;2023-04-30T10:55:51;99771.09;;;25.50;30.68
71149;BME280;59072;42.144;25.200;2023-04-30T11:01:15;99775.75;;;25.49;26.49
71149;BME280;59072;42.144;25.200;2023-04-30T11:03:42;99773.72;;;25.76;27.67
71149;BME280;59072;42.144;25.200;2023-04-30T11:06:54;99769.00;;;26.74;28.31
71149;BME280;59072;42.144;25.200;2023-04-30T11:09:55;99764.03;;;26.46;29.24
71149;BME280;59072;42.144;25.200;2023-04-30T11:12:35;99769.50;;;26.46;29.82
71149;BME280;59072;42.144;25.200;2023-04-30T11:15:14;99754.03;;;26.93;29.48
71149;BME280;59072;42.144;25.200;2023-04-30T11:17:43;99767.13;;;26.66;29.40
71149;BME280;59072;42.144;25.200;2023-04-30T11:20:16;99758.56;;;26.89;28.57
71149;BME280;59072;42.144;25.200;2023-04-30T11:22:44;99749.47;;;26.97;26.77
71149;BME280;59072;42.144;25.200;2023-04-30T11:25:11;99763.75;;;27.36;29.60
71149;BME280;59072;42.144;25.200;2023-04-30T11:27:43;99752.88;;;27.85;26.86
71149;BME280;59072;42.144;25.200;2023-04-30T11:30:12;99738.28;;;28.05;26.72
71149;BME280;59072;42.144;25.200;2023-04-30T11:32:39;99756.09;;;27.29;28.32
71149;BME280;59072;42.144;25.200;2023-04-30T11:35:06;99748.38;;;27.43;28.42
71149;BME280;59072;42.144;25.200;2023-04-30T11:37:33;99747.41;;;28.10;26.89
71149;BME280;59072;42.144;25.200;2023-04-30T11:40:00;99750.00;;;28.31;27.39
71149;BME280;59072;42.144;25.200;2023-04-30T11:42:26;99747.13;;;28.39;27.13
71149;BME280;59072;42.144;25.200;2023-04-30T11:44:53;99748.34;;;28.54;25.46
71149;BME280;59072;42.144;25.200;2023-04-30T11:47:19;99743.56;;;28.51;24.69
71149;BME280;59072;42.144;25.200;2023-04-30T11:49:44;99753.81;;;28.95;25.59
71149;BME280;59072;42.144;25.200;2023-04-30T11:52:12;99743.16;;;28.77;23.92
71149;BME280;59072;42.144;25.200;2023-04-30T11:54:38;99752.75;;;29.12;23.22
71149;BME280;59072;42.144;25.200;2023-04-30T11:57:04;99752.75;;;29.28;23.17
71149;BME280;59072;42.144;25.200;2023-04-30T11:59:31;99742.47;;;28.68;23.65
71149;BME280;59072;42.144;25.200;2023-04-30T12:01:57;99747.59;;;28.29;23.59
71149;BME280;59072;42.144;25.200;2023-04-30T12:04:23;99736.31;;;28.71;24.52
71149;BME280;59072;42.144;25.200;2023-04-30T12:06:48;99743.19;;;28.93;24.77
71149;BME280;59072;42.144;25.200;2023-04-30T12:09:14;99743.34;;;27.45;24.45
71149;BME280;59072;42.144;25.200;2023-04-30T12:11:40;99744.97;;;27.13;25.98
71149;BME280;59072;42.144;25.200;2023-04-30T12:14:07;99742.09;;;26.76;25.36
71149;BME280;59072;42.144;25.200;2023-04-30T12:16:44;99736.78;;;26.38;26.03
71149;BME280;59072;42.144;25.200;2023-04-30T12:19:16;99734.63;;;26.43;26.77
71149;BME280;59072;42.144;25.200;2023-04-30T12:21:43;99732.84;;;25.88;26.72
71149;BME280;59072;42.144;25.200;2023-04-30T12:24:11;99744.72;;;25.62;27.14
71149;BME280;59072;42.144;25.200;2023-04-30T12:26:37;99743.44;;;25.60;28.00
71149;BME280;59072;42.144;25.200;2023-04-30T12:29:08;99727.09;;;25.51;30.43
71149;BME280;59072;42.144;25.200;2023-04-30T12:31:36;99733.91;;;25.19;33.26
71149;BME280;59072;42.144;25.200;2023-04-30T12:34:04;99728.63;;;25.22;33.09
71149;BME280;59072;42.144;25.200;2023-04-30T12:36:30;99733.16;;;24.83;33.28
71149;BME280;59072;42.144;25.200;2023-04-30T12:39:05;99721.47;;;24.57;34.92
71149;BME280;59072;42.144;25.200;2023-04-30T12:41:51;99718.53;;;24.27;37.75
71149;BME280;59072;42.144;25.200;2023-04-30T12:44:21;99699.91;;;23.54;32.89
71149;BME280;59072;42.144;25.200;2023-04-30T12:46:48;99718.47;;;23.52;32.36
71149;BME280;59072;42.144;25.200;2023-04-30T12:49:24;99714.94;;;23.52;34.91
71149;BME280;59072;42.144;25.200;2023-04-30T12:51:50;99718.97;;;23.54;36.00
71149;BME280;59072;42.144;25.200;2023-04-30T12:54:24;99717.59;;;23.34;36.43
71149;BME280;59072;42.144;25.200;2023-04-30T12:57:05;99726.94;;;23.19;35.81
71149;BME280;59072;42.144;25.200;2023-04-30T12:59:37;99701.59;;;23.10;37.13
71149;BME280;59072;42.144;25.200;2023-04-30T13:02:09;99708.53;;;22.94;37.51
71149;BME280;59072;42.144;25.200;2023-04-30T13:04:36;99698.44;;;22.49;37.60
71149;BME280;59072;42.144;25.200;2023-04-30T13:07:02;99706.81;;;23.60;34.08
71149;BME280;59072;42.144;25.200;2023-04-30T13:09:29;99709.56;;;24.18;34.29
71149;BME280;59072;42.144;25.200;2023-04-30T13:11:54;99716.34;;;24.73;32.29
71149;BME280;59072;42.144;25.200;2023-04-30T13:14:20;99705.19;;;25.60;30.86
71149;BME280;59072;42.144;25.200;2023-04-30T13:16:45;99716.56;;;26.72;28.55
71149;BME280;59072;42.144;25.200;2023-04-30T13:19:11;99712.97;;;26.59;26.05
71149;BME280;59072;42.144;25.200;2023-04-30T13:21:36;99705.38;;;27.81;26.94
71149;BME280;59072;42.144;25.200;2023-04-30T13:24:02;99712.25;;;27.75;24.66
71149;BME280;59072;42.144;25.200;2023-04-30T13:26:27;99706.03;;;28.15;22.92
71149;BME280;59072;42.144;25.200;2023-04-30T13:28:54;99712.13;;;28.49;24.29
71149;BME280;59072;42.144;25.200;2023-04-30T13:31:19;99706.59;;;29.17;21.64